sensor_id;sensor_type;location;lat;lon;timestamp;temperature;humidity
19483;DHT22;9882;51.166;6.992;2022-07-29T00:01:25;22.80;90.00
19483;DHT22;9882;51.166;6.992;2022-07-29T00:03:55;23.10;90.00
19483;DHT22;9882;51.166;6.992;2022-07-29T00:06:26;23.00;90.00
19483;DHT22;9882;51.166;6.992;2022-07-29T00:08:56;23.10;89.60
19483;DHT22;9882;51.166;6.992;2022-07-29T00:11:25;23.20;89.30
19483;DHT22;9882;51.166;6.992;2022-07-29T00:13:54;23.20;89.40
19483;DHT22;9882;51.166;6.992;2022-07-29T00:16:24;23.10;89.20
19483;DHT22;9882;51.166;6.992;2022-07-29T00:18:53;23.10;89.30
19483;DHT22;9882;51.166;6.992;2022-07-29T00:21:22;23.20;89.30
19483;DHT22;9882;51.166;6.992;2022-07-29T00:23:53;23.10;89.20
19483;DHT22;9882;51.166;6.992;2022-07-29T00:26:22;22.60;90.20
19483;DHT22;9882;51.166;6.992;2022-07-29T00:28:52;22.90;90.30
19483;DHT22;9882;51.166;6.992;2022-07-29T00:31:28;23.10;90.10
19483;DHT22;9882;51.166;6.992;2022-07-29T00:33:58;23.20;90.10
19483;DHT22;9882;51.166;6.992;2022-07-29T00:36:27;23.20;90.10
19483;DHT22;9882;51.166;6.992;2022-07-29T00:38:57;23.30;90.30
19483;DHT22;9882;51.166;6.992;2022-07-29T00:41:26;23.20;90.30
19483;DHT22;9882;51.166;6.992;2022-07-29T00:43:55;23.20;90.40
19483;DHT22;9882;51.166;6.992;2022-07-29T00:46:25;23.10;91.10
19483;DHT22;9882;51.166;6.992;2022-07-29T00:48:54;23.10;90.70
19483;DHT22;9882;51.166;6.992;2022-07-29T00:51:25;23.10;90.80
19483;DHT22;9882;51.166;6.992;2022-07-29T00:53:56;23.10;90.80
19483;DHT22;9882;51.166;6.992;2022-07-29T00:56:26;23.00;90.70
19483;DHT22;9882;51.166;6.992;2022-07-29T00:58:57;22.90;90.80
19483;DHT22;9882;51.166;6.992;2022-07-29T01:01:27;22.60;90.90
19483;DHT22;9882;51.166;6.992;2022-07-29T01:03:56;22.80;91.10
19483;DHT22;9882;51.166;6.992;2022-07-29T01:06:25;22.70;91.00
19483;DHT22;9882;51.166;6.992;2022-07-29T01:08:56;22.50;91.20
19483;DHT22;9882;51.166;6.992;2022-07-29T01:11:27;22.60;91.10
19483;DHT22;9882;51.166;6.992;2022-07-29T01:13:57;22.50;91.10
19483;DHT22;9882;51.166;6.992;2022-07-29T01:16:31;22.60;91.10
19483;DHT22;9882;51.166;6.992;2022-07-29T01:19:07;22.70;90.80
19483;DHT22;9882;51.166;6.992;2022-07-29T01:21:50;22.70;90.40
19483;DHT22;9882;51.166;6.992;2022-07-29T01:24:35;22.70;90.70
19483;DHT22;9882;51.166;6.992;2022-07-29T01:27:16;22.80;90.60
19483;DHT22;9882;51.166;6.992;2022-07-29T01:29:55;22.60;90.70
19483;DHT22;9882;51.166;6.992;2022-07-29T01:32:27;22.70;91.00
19483;DHT22;9882;51.166;6.992;2022-07-29T01:35:02;22.70;91.10
19483;DHT22;9882;51.166;6.992;2022-07-29T01:37:38;22.80;91.20
19483;DHT22;9882;51.166;6.992;2022-07-29T01:40:13;22.80;91.10
19483;DHT22;9882;51.166;6.992;2022-07-29T01:42:50;22.80;91.20
19483;DHT22;9882;51.166;6.992;2022-07-29T01:45:28;22.80;91.30
19483;DHT22;9882;51.166;6.992;2022-07-29T01:48:03;22.80;91.50
19483;DHT22;9882;51.166;6.992;2022-07-29T01:50:37;22.80;91.60
19483;DHT22;9882;51.166;6.992;2022-07-29T01:53:10;22.80;91.70
19483;DHT22;9882;51.166;6.992;2022-07-29T01:55:44;22.80;91.80
19483;DHT22;9882;51.166;6.992;2022-07-29T01:58:16;22.80;91.80
19483;DHT22;9882;51.166;6.992;2022-07-29T02:00:49;22.70;91.80
19483;DHT22;9882;51.166;6.992;2022-07-29T02:03:19;22.70;91.70
19483;DHT22;9882;51.166;6.992;2022-07-29T02:05:50;21.50;93.50
19483;DHT22;9882;51.166;6.992;2022-07-29T02:08:21;21.90;93.40
19483;DHT22;9882;51.166;6.992;2022-07-29T02:10:51;21.80;93.60
19483;DHT22;9882;51.166;6.992;2022-07-29T02:13:23;21.60;94.10
19483;DHT22;9882;51.166;6.992;2022-07-29T02:15:56;21.90;94.10
19483;DHT22;9882;51.166;6.992;2022-07-29T02:18:28;22.00;94.00
19483;DHT22;9882;51.166;6.992;2022-07-29T02:20:59;21.80;94.30
19483;DHT22;9882;51.166;6.992;2022-07-29T02:23:31;21.80;94.50
19483;DHT22;9882;51.166;6.992;2022-07-29T02:26:01;21.60;94.70
19483;DHT22;9882;51.166;6.992;2022-07-29T02:28:33;21.80;94.70
19483;DHT22;9882;51.166;6.992;2022-07-29T02:31:05;21.70;94.80
19483;DHT22;9882;51.166;6.992;2022-07-29T02:33:35;21.90;95.30
19483;DHT22;9882;51.166;6.992;2022-07-29T02:36:06;21.70;95.20
19483;DHT22;9882;51.166;6.992;2022-07-29T02:38:37;21.90;95.00
19483;DHT22;9882;51.166;6.992;2022-07-29T02:41:23;21.60;95.50
19483;DHT22;9882;51.166;6.992;2022-07-29T02:43:56;21.90;95.10
19483;DHT22;9882;51.166;6.992;2022-07-29T02:46:30;22.00;95.00
19483;DHT22;9882;51.166;6.992;2022-07-29T02:49:07;22.10;94.90
19483;DHT22;9882;51.166;6.992;2022-07-29T02:51:43;22.10;94.80
19483;DHT22;9882;51.166;6.992;2022-07-29T02:54:24;22.10;94.90
19483;DHT22;9882;51.166;6.992;2022-07-29T02:56:57;22.10;94.90
19483;DHT22;9882;51.166;6.992;2022-07-29T02:59:30;21.50;96.20
19483;DHT22;9882;51.166;6.992;2022-07-29T03:02:02;20.70;97.20
19483;DHT22;9882;51.166;6.992;2022-07-29T03:04:34;20.90;97.40
19483;DHT22;9882;51.166;6.992;2022-07-29T03:07:05;20.30;97.50
19483;DHT22;9882;51.166;6.992;2022-07-29T03:09:36;20.50;97.80
19483;DHT22;9882;51.166;6.992;2022-07-29T03:12:06;20.30;98.20
19483;DHT22;9882;51.166;6.992;2022-07-29T03:14:36;20.60;98.20
19483;DHT22;9882;51.166;6.992;2022-07-29T03:17:15;20.30;97.90
19483;DHT22;9882;51.166;6.992;2022-07-29T03:20:01;19.90;98.40
19483;DHT22;9882;51.166;6.992;2022-07-29T03:22:30;20.40;98.90
19483;DHT22;9882;51.166;6.992;2022-07-29T03:25:08;20.30;98.50
19483;DHT22;9882;51.166;6.992;2022-07-29T03:27:37;19.60;99.30
19483;DHT22;9882;51.166;6.992;2022-07-29T03:30:08;19.80;99.30
19483;DHT22;9882;51.166;6.992;2022-07-29T03:32:41;19.70;99.50
19483;DHT22;9882;51.166;6.992;2022-07-29T03:35:11;19.80;99.90
19483;DHT22;9882;51.166;6.992;2022-07-29T03:37:41;19.50;99.90
19483;DHT22;9882;51.166;6.992;2022-07-29T03:40:13;19.30;99.90
19483;DHT22;9882;51.166;6.992;2022-07-29T03:42:44;19.40;99.90
19483;DHT22;9882;51.166;6.992;2022-07-29T03:45:17;18.80;99.90
19483;DHT22;9882;51.166;6.992;2022-07-29T03:47:52;18.70;99.90
19483;DHT22;9882;51.166;6.992;2022-07-29T03:50:25;19.00;99.90
19483;DHT22;9882;51.166;6.992;2022-07-29T03:52:54;18.60;99.90
19483;DHT22;9882;51.166;6.992;2022-07-29T03:55:23;18.80;99.90
19483;DHT22;9882;51.166;6.992;2022-07-29T03:57:53;19.10;99.90
19483;DHT22;9882;51.166;6.992;2022-07-29T04:00:24;18.90;99.90
19483;DHT22;9882;51.166;6.992;2022-07-29T04:02:55;18.60;99.90
19483;DHT22;9882;51.166;6.992;2022-07-29T04:05:28;18.80;99.90
19483;DHT22;9882;51.166;6.992;2022-07-29T04:07:57;18.80;99.90
19483;DHT22;9882;51.166;6.992;2022-07-29T04:10:27;19.00;99.90
19483;DHT22;9882;51.166;6.992;2022-07-29T04:12:57;19.00;99.90
19483;DHT22;9882;51.166;6.992;2022-07-29T04:15:27;18.60;99.90
19483;DHT22;9882;51.166;6.992;2022-07-29T04:17:57;18.80;99.90
19483;DHT22;9882;51.166;6.992;2022-07-29T04:20:27;18.90;99.90
19483;DHT22;9882;51.166;6.992;2022-07-29T04:22:57;18.60;99.90
19483;DHT22;9882;51.166;6.992;2022-07-29T04:25:26;19.00;99.90
19483;DHT22;9882;51.166;6.992;2022-07-29T04:27:55;19.20;99.90
19483;DHT22;9882;51.166;6.992;2022-07-29T04:30:32;19.30;99.90
19483;DHT22;9882;51.166;6.992;2022-07-29T04:33:04;19.20;99.90
19483;DHT22;9882;51.166;6.992;2022-07-29T04:35:36;19.30;99.90
19483;DHT22;9882;51.166;6.992;2022-07-29T04:38:06;19.30;99.90
19483;DHT22;9882;51.166;6.992;2022-07-29T04:40:35;19.00;99.90
19483;DHT22;9882;51.166;6.992;2022-07-29T04:43:04;19.40;99.90
19483;DHT22;9882;51.166;6.992;2022-07-29T04:45:33;19.10;99.90
19483;DHT22;9882;51.166;6.992;2022-07-29T04:48:05;19.10;99.90
19483;DHT22;9882;51.166;6.992;2022-07-29T04:50:34;19.30;99.90
19483;DHT22;9882;51.166;6.992;2022-07-29T04:53:06;19.70;99.90
19483;DHT22;9882;51.166;6.992;2022-07-29T04:55:36;19.40;99.90
19483;DHT22;9882;51.166;6.992;2022-07-29T04:58:05;19.50;99.90
19483;DHT22;9882;51.166;6.992;2022-07-29T05:00:35;19.50;99.90
19483;DHT22;9882;51.166;6.992;2022-07-29T05:03:05;19.80;99.90
19483;DHT22;9882;51.166;6.992;2022-07-29T05:05:35;19.90;99.90
19483;DHT22;9882;51.166;6.992;2022-07-29T05:08:04;20.00;99.90
19483;DHT22;9882;51.166;6.992;2022-07-29T05:10:33;19.50;99.90
19483;DHT22;9882;51.166;6.992;2022-07-29T05:13:05;19.40;99.90
19483;DHT22;9882;51.166;6.992;2022-07-29T05:15:35;19.50;99.90
19483;DHT22;9882;51.166;6.992;2022-07-29T05:18:06;19.80;99.90
19483;DHT22;9882;51.166;6.992;2022-07-29T05:20:35;19.40;99.90
19483;DHT22;9882;51.166;6.992;2022-07-29T05:23:04;19.10;99.90
19483;DHT22;9882;51.166;6.992;2022-07-29T05:25:33;19.40;99.90
19483;DHT22;9882;51.166;6.992;2022-07-29T05:28:02;19.30;99.90
19483;DHT22;9882;51.166;6.992;2022-07-29T05:30:31;19.70;99.90
19483;DHT22;9882;51.166;6.992;2022-07-29T05:33:01;19.90;99.90
19483;DHT22;9882;51.166;6.992;2022-07-29T05:35:31;20.00;99.90
19483;DHT22;9882;51.166;6.992;2022-07-29T05:38:02;20.00;99.90
19483;DHT22;9882;51.166;6.992;2022-07-29T05:40:31;20.00;99.90
19483;DHT22;9882;51.166;6.992;2022-07-29T05:43:01;20.10;99.80
19483;DHT22;9882;51.166;6.992;2022-07-29T05:45:30;20.10;99.70
19483;DHT22;9882;51.166;6.992;2022-07-29T05:47:59;20.10;99.90
19483;DHT22;9882;51.166;6.992;2022-07-29T05:50:28;20.00;99.90
19483;DHT22;9882;51.166;6.992;2022-07-29T05:52:59;20.20;99.70
19483;DHT22;9882;51.166;6.992;2022-07-29T05:55:28;20.10;99.70
19483;DHT22;9882;51.166;6.992;2022-07-29T05:57:57;20.20;99.60
19483;DHT22;9882;51.166;6.992;2022-07-29T06:00:26;20.30;99.50
19483;DHT22;9882;51.166;6.992;2022-07-29T06:02:56;20.20;99.60
19483;DHT22;9882;51.166;6.992;2022-07-29T06:05:25;20.30;99.40
19483;DHT22;9882;51.166;6.992;2022-07-29T06:07:54;20.30;99.30
19483;DHT22;9882;51.166;6.992;2022-07-29T06:10:26;20.20;99.80
19483;DHT22;9882;51.166;6.992;2022-07-29T06:12:55;20.30;99.50
19483;DHT22;9882;51.166;6.992;2022-07-29T06:15:24;20.40;99.30
19483;DHT22;9882;51.166;6.992;2022-07-29T06:17:53;20.40;99.70
19483;DHT22;9882;51.166;6.992;2022-07-29T06:20:22;20.40;99.50
19483;DHT22;9882;51.166;6.992;2022-07-29T06:22:51;20.00;99.90
19483;DHT22;9882;51.166;6.992;2022-07-29T06:25:20;19.80;99.90
19483;DHT22;9882;51.166;6.992;2022-07-29T06:27:51;20.00;99.90
19483;DHT22;9882;51.166;6.992;2022-07-29T06:30:20;20.30;99.90
19483;DHT22;9882;51.166;6.992;2022-07-29T06:32:52;20.30;99.90
19483;DHT22;9882;51.166;6.992;2022-07-29T06:35:21;20.50;99.80
19483;DHT22;9882;51.166;6.992;2022-07-29T06:38:00;20.50;99.70
19483;DHT22;9882;51.166;6.992;2022-07-29T06:40:29;20.60;99.70
19483;DHT22;9882;51.166;6.992;2022-07-29T06:43:16;20.70;99.30
19483;DHT22;9882;51.166;6.992;2022-07-29T06:45:45;20.60;99.30
19483;DHT22;9882;51.166;6.992;2022-07-29T06:48:14;20.70;99.30
19483;DHT22;9882;51.166;6.992;2022-07-29T06:50:43;20.40;99.80
19483;DHT22;9882;51.166;6.992;2022-07-29T06:53:13;20.50;99.70
19483;DHT22;9882;51.166;6.992;2022-07-29T06:55:42;20.60;99.90
19483;DHT22;9882;51.166;6.992;2022-07-29T06:58:10;20.50;99.90
19483;DHT22;9882;51.166;6.992;2022-07-29T07:00:43;20.60;99.90
19483;DHT22;9882;51.166;6.992;2022-07-29T07:03:12;20.70;99.90
19483;DHT22;9882;51.166;6.992;2022-07-29T07:05:41;20.70;99.90
19483;DHT22;9882;51.166;6.992;2022-07-29T07:08:10;20.50;99.90
19483;DHT22;9882;51.166;6.992;2022-07-29T07:10:39;20.20;99.90
19483;DHT22;9882;51.166;6.992;2022-07-29T07:13:09;20.00;99.90
19483;DHT22;9882;51.166;6.992;2022-07-29T07:15:39;20.20;99.90
19483;DHT22;9882;51.166;6.992;2022-07-29T07:18:09;20.40;99.90
19483;DHT22;9882;51.166;6.992;2022-07-29T07:20:38;19.90;99.90
19483;DHT22;9882;51.166;6.992;2022-07-29T07:23:08;19.90;99.90
19483;DHT22;9882;51.166;6.992;2022-07-29T07:25:37;20.20;99.90
19483;DHT22;9882;51.166;6.992;2022-07-29T07:28:06;20.40;99.90
19483;DHT22;9882;51.166;6.992;2022-07-29T07:30:35;20.60;99.90
19483;DHT22;9882;51.166;6.992;2022-07-29T07:33:04;20.70;99.90
19483;DHT22;9882;51.166;6.992;2022-07-29T07:35:35;20.70;99.90
19483;DHT22;9882;51.166;6.992;2022-07-29T07:38:04;20.70;99.90
19483;DHT22;9882;51.166;6.992;2022-07-29T07:40:33;20.20;99.90
19483;DHT22;9882;51.166;6.992;2022-07-29T07:43:02;19.70;99.90
19483;DHT22;9882;51.166;6.992;2022-07-29T07:45:31;19.90;99.90
19483;DHT22;9882;51.166;6.992;2022-07-29T07:48:01;20.10;99.90
19483;DHT22;9882;51.166;6.992;2022-07-29T07:50:30;20.40;99.90
19483;DHT22;9882;51.166;6.992;2022-07-29T07:53:00;20.50;99.90
19483;DHT22;9882;51.166;6.992;2022-07-29T07:55:29;20.60;99.90
19483;DHT22;9882;51.166;6.992;2022-07-29T07:58:04;20.60;99.90
19483;DHT22;9882;51.166;6.992;2022-07-29T08:00:33;20.60;99.90
19483;DHT22;9882;51.166;6.992;2022-07-29T08:03:03;20.70;99.90
19483;DHT22;9882;51.166;6.992;2022-07-29T08:05:32;20.40;99.90
19483;DHT22;9882;51.166;6.992;2022-07-29T08:08:02;20.30;99.90
19483;DHT22;9882;51.166;6.992;2022-07-29T08:10:31;20.20;99.90
19483;DHT22;9882;51.166;6.992;2022-07-29T08:13:19;20.00;99.90
19483;DHT22;9882;51.166;6.992;2022-07-29T08:15:48;20.00;99.90
19483;DHT22;9882;51.166;6.992;2022-07-29T08:18:25;20.10;99.90
19483;DHT22;9882;51.166;6.992;2022-07-29T08:20:54;20.40;99.90
19483;DHT22;9882;51.166;6.992;2022-07-29T08:23:25;20.50;99.90
19483;DHT22;9882;51.166;6.992;2022-07-29T08:26:02;20.50;99.90
19483;DHT22;9882;51.166;6.992;2022-07-29T08:28:31;20.50;99.90
19483;DHT22;9882;51.166;6.992;2022-07-29T08:31:00;20.50;99.90
19483;DHT22;9882;51.166;6.992;2022-07-29T08:33:29;20.20;99.90
19483;DHT22;9882;51.166;6.992;2022-07-29T08:35:58;20.30;99.90
19483;DHT22;9882;51.166;6.992;2022-07-29T08:38:28;20.30;99.90
19483;DHT22;9882;51.166;6.992;2022-07-29T08:40:58;20.30;99.90
19483;DHT22;9882;51.166;6.992;2022-07-29T08:43:28;20.50;99.90
19483;DHT22;9882;51.166;6.992;2022-07-29T08:45:57;20.50;99.90
19483;DHT22;9882;51.166;6.992;2022-07-29T08:48:26;20.60;99.90
19483;DHT22;9882;51.166;6.992;2022-07-29T08:50:56;20.40;99.90
19483;DHT22;9882;51.166;6.992;2022-07-29T08:53:27;20.50;99.90
19483;DHT22;9882;51.166;6.992;2022-07-29T08:55:57;20.50;99.90
19483;DHT22;9882;51.166;6.992;2022-07-29T08:58:30;20.40;99.90
19483;DHT22;9882;51.166;6.992;2022-07-29T09:01:01;20.40;99.90
19483;DHT22;9882;51.166;6.992;2022-07-29T09:03:31;20.40;99.90
19483;DHT22;9882;51.166;6.992;2022-07-29T09:06:01;20.50;99.90
19483;DHT22;9882;51.166;6.992;2022-07-29T09:08:33;20.40;99.90
19483;DHT22;9882;51.166;6.992;2022-07-29T09:11:02;20.50;99.90
19483;DHT22;9882;51.166;6.992;2022-07-29T09:13:42;20.40;99.90
19483;DHT22;9882;51.166;6.992;2022-07-29T09:19:19;20.60;99.90
19483;DHT22;9882;51.166;6.992;2022-07-29T09:21:48;20.50;99.90
19483;DHT22;9882;51.166;6.992;2022-07-29T09:24:37;20.60;99.90
19483;DHT22;9882;51.166;6.992;2022-07-29T09:27:20;20.40;99.90
19483;DHT22;9882;51.166;6.992;2022-07-29T09:29:56;20.40;99.90
19483;DHT22;9882;51.166;6.992;2022-07-29T09:32:25;20.30;99.90
19483;DHT22;9882;51.166;6.992;2022-07-29T09:35:13;19.70;99.90
19483;DHT22;9882;51.166;6.992;2022-07-29T09:37:42;19.70;99.90
19483;DHT22;9882;51.166;6.992;2022-07-29T09:40:14;19.90;99.90
19483;DHT22;9882;51.166;6.992;2022-07-29T09:42:44;19.70;99.90
19483;DHT22;9882;51.166;6.992;2022-07-29T09:45:26;19.90;99.90
19483;DHT22;9882;51.166;6.992;2022-07-29T09:47:55;20.20;99.90
19483;DHT22;9882;51.166;6.992;2022-07-29T09:50:37;20.40;99.90
19483;DHT22;9882;51.166;6.992;2022-07-29T09:53:06;20.40;99.90
19483;DHT22;9882;51.166;6.992;2022-07-29T09:55:48;20.50;99.90
19483;DHT22;9882;51.166;6.992;2022-07-29T09:58:18;20.30;99.90
19483;DHT22;9882;51.166;6.992;2022-07-29T10:00:48;20.10;99.90
19483;DHT22;9882;51.166;6.992;2022-07-29T10:03:17;20.00;99.90
19483;DHT22;9882;51.166;6.992;2022-07-29T10:05:46;19.90;99.90
19483;DHT22;9882;51.166;6.992;2022-07-29T10:08:31;19.80;99.90
19483;DHT22;9882;51.166;6.992;2022-07-29T10:11:10;19.70;99.90
19483;DHT22;9882;51.166;6.992;2022-07-29T10:13:40;20.00;99.90
19483;DHT22;9882;51.166;6.992;2022-07-29T10:16:09;20.20;99.90
19483;DHT22;9882;51.166;6.992;2022-07-29T10:18:39;20.30;99.90
19483;DHT22;9882;51.166;6.992;2022-07-29T10:21:08;20.40;99.90
19483;DHT22;9882;51.166;6.992;2022-07-29T10:23:37;20.40;99.90
19483;DHT22;9882;51.166;6.992;2022-07-29T10:26:08;20.10;99.90
19483;DHT22;9882;51.166;6.992;2022-07-29T10:28:38;20.00;99.90
19483;DHT22;9882;51.166;6.992;2022-07-29T10:31:09;19.80;99.90
19483;DHT22;9882;51.166;6.992;2022-07-29T10:33:47;20.00;99.90
19483;DHT22;9882;51.166;6.992;2022-07-29T10:36:38;20.10;99.90
19483;DHT22;9882;51.166;6.992;2022-07-29T10:39:19;20.20;99.90
19483;DHT22;9882;51.166;6.992;2022-07-29T10:42:18;19.70;99.90
19483;DHT22;9882;51.166;6.992;2022-07-29T10:44:48;19.60;99.90
19483;DHT22;9882;51.166;6.992;2022-07-29T10:47:22;19.80;99.90
19483;DHT22;9882;51.166;6.992;2022-07-29T10:49:58;19.70;99.90
19483;DHT22;9882;51.166;6.992;2022-07-29T10:52:52;19.60;99.90
19483;DHT22;9882;51.166;6.992;2022-07-29T10:55:31;19.30;99.90
19483;DHT22;9882;51.166;6.992;2022-07-29T10:58:13;19.30;99.90
19483;DHT22;9882;51.166;6.992;2022-07-29T11:00:42;19.40;99.90
19483;DHT22;9882;51.166;6.992;2022-07-29T11:03:42;19.50;99.90
19483;DHT22;9882;51.166;6.992;2022-07-29T11:06:12;19.40;99.90
19483;DHT22;9882;51.166;6.992;2022-07-29T11:08:41;19.60;99.90
19483;DHT22;9882;51.166;6.992;2022-07-29T11:11:34;19.80;99.90
19483;DHT22;9882;51.166;6.992;2022-07-29T11:14:05;20.00;99.90
19483;DHT22;9882;51.166;6.992;2022-07-29T11:16:59;20.00;99.90
19483;DHT22;9882;51.166;6.992;2022-07-29T11:19:29;20.20;99.90
19483;DHT22;9882;51.166;6.992;2022-07-29T11:21:58;20.20;99.90
19483;DHT22;9882;51.166;6.992;2022-07-29T11:24:28;20.40;99.90
19483;DHT22;9882;51.166;6.992;2022-07-29T11:27:14;20.70;99.90
19483;DHT22;9882;51.166;6.992;2022-07-29T11:29:53;20.90;99.90
19483;DHT22;9882;51.166;6.992;2022-07-29T11:32:24;20.80;99.90
19483;DHT22;9882;51.166;6.992;2022-07-29T11:35:14;20.90;99.90
19483;DHT22;9882;51.166;6.992;2022-07-29T11:37:45;20.90;99.90
19483;DHT22;9882;51.166;6.992;2022-07-29T11:40:15;20.90;99.90
19483;DHT22;9882;51.166;6.992;2022-07-29T11:42:45;21.10;99.90
19483;DHT22;9882;51.166;6.992;2022-07-29T11:45:26;21.30;99.90
19483;DHT22;9882;51.166;6.992;2022-07-29T11:47:59;21.40;99.90
19483;DHT22;9882;51.166;6.992;2022-07-29T11:50:34;21.50;99.90
19483;DHT22;9882;51.166;6.992;2022-07-29T11:53:10;21.40;99.90
19483;DHT22;9882;51.166;6.992;2022-07-29T11:55:40;21.40;99.90
19483;DHT22;9882;51.166;6.992;2022-07-29T11:58:08;21.70;99.90
19483;DHT22;9882;51.166;6.992;2022-07-29T12:00:40;21.80;99.90
19483;DHT22;9882;51.166;6.992;2022-07-29T12:03:10;21.90;99.90
19483;DHT22;9882;51.166;6.992;2022-07-29T12:05:40;22.10;99.90
19483;DHT22;9882;51.166;6.992;2022-07-29T12:08:12;21.70;99.90
19483;DHT22;9882;51.166;6.992;2022-07-29T12:10:42;22.10;99.90
19483;DHT22;9882;51.166;6.992;2022-07-29T12:13:12;22.20;99.90
19483;DHT22;9882;51.166;6.992;2022-07-29T12:15:50;22.20;99.90
19483;DHT22;9882;51.166;6.992;2022-07-29T12:18:20;22.20;99.90
19483;DHT22;9882;51.166;6.992;2022-07-29T12:20:49;22.40;99.90
19483;DHT22;9882;51.166;6.992;2022-07-29T12:23:24;22.30;99.90
19483;DHT22;9882;51.166;6.992;2022-07-29T12:25:52;22.70;99.90
19483;DHT22;9882;51.166;6.992;2022-07-29T12:28:22;22.70;99.90
19483;DHT22;9882;51.166;6.992;2022-07-29T12:30:52;22.60;99.90
19483;DHT22;9882;51.166;6.992;2022-07-29T12:33:22;22.90;99.90
19483;DHT22;9882;51.166;6.992;2022-07-29T12:35:53;22.80;99.90
19483;DHT22;9882;51.166;6.992;2022-07-29T12:38:33;22.80;99.90
19483;DHT22;9882;51.166;6.992;2022-07-29T12:41:03;22.70;99.90
19483;DHT22;9882;51.166;6.992;2022-07-29T12:43:31;22.60;99.90
19483;DHT22;9882;51.166;6.992;2022-07-29T12:46:13;22.90;99.90
19483;DHT22;9882;51.166;6.992;2022-07-29T12:48:43;23.10;99.90
19483;DHT22;9882;51.166;6.992;2022-07-29T12:51:11;22.80;99.90
19483;DHT22;9882;51.166;6.992;2022-07-29T12:53:41;23.10;99.90
19483;DHT22;9882;51.166;6.992;2022-07-29T12:56:29;23.10;99.90
19483;DHT22;9882;51.166;6.992;2022-07-29T12:59:18;23.20;99.90
19483;DHT22;9882;51.166;6.992;2022-07-29T13:01:51;23.20;99.90
19483;DHT22;9882;51.166;6.992;2022-07-29T13:04:27;23.00;99.90
19483;DHT22;9882;51.166;6.992;2022-07-29T13:07:00;23.00;99.90
19483;DHT22;9882;51.166;6.992;2022-07-29T13:09:37;23.30;99.90
19483;DHT22;9882;51.166;6.992;2022-07-29T13:12:07;23.40;99.90
19483;DHT22;9882;51.166;6.992;2022-07-29T13:14:38;23.30;99.90
19483;DHT22;9882;51.166;6.992;2022-07-29T13:17:10;23.40;99.90
19483;DHT22;9882;51.166;6.992;2022-07-29T13:19:40;23.60;99.90
19483;DHT22;9882;51.166;6.992;2022-07-29T13:22:10;23.60;99.90
19483;DHT22;9882;51.166;6.992;2022-07-29T13:24:47;23.60;99.90
19483;DHT22;9882;51.166;6.992;2022-07-29T13:27:17;23.80;99.90
19483;DHT22;9882;51.166;6.992;2022-07-29T13:29:46;23.90;99.90
19483;DHT22;9882;51.166;6.992;2022-07-29T13:32:17;23.90;99.90
19483;DHT22;9882;51.166;6.992;2022-07-29T13:34:45;24.10;99.90
19483;DHT22;9882;51.166;6.992;2022-07-29T13:37:14;24.40;99.90
19483;DHT22;9882;51.166;6.992;2022-07-29T13:39:44;24.90;99.90
19483;DHT22;9882;51.166;6.992;2022-07-29T13:42:12;24.90;99.90
19483;DHT22;9882;51.166;6.992;2022-07-29T13:44:41;25.20;99.90
19483;DHT22;9882;51.166;6.992;2022-07-29T13:47:10;25.40;99.90
19483;DHT22;9882;51.166;6.992;2022-07-29T13:49:40;25.70;99.90
19483;DHT22;9882;51.166;6.992;2022-07-29T13:52:08;25.50;99.90
19483;DHT22;9882;51.166;6.992;2022-07-29T13:54:37;25.80;99.90
19483;DHT22;9882;51.166;6.992;2022-07-29T13:57:08;25.90;99.90
19483;DHT22;9882;51.166;6.992;2022-07-29T13:59:38;26.30;99.90
19483;DHT22;9882;51.166;6.992;2022-07-29T14:02:07;25.70;98.50
19483;DHT22;9882;51.166;6.992;2022-07-29T14:04:35;26.40;98.80
19483;DHT22;9882;51.166;6.992;2022-07-29T14:07:06;26.50;97.10
19483;DHT22;9882;51.166;6.992;2022-07-29T14:09:35;26.70;97.00
19483;DHT22;9882;51.166;6.992;2022-07-29T14:12:04;26.70;99.00
19483;DHT22;9882;51.166;6.992;2022-07-29T14:14:32;27.30;96.50
19483;DHT22;9882;51.166;6.992;2022-07-29T14:17:02;27.60;95.00
19483;DHT22;9882;51.166;6.992;2022-07-29T14:19:33;27.70;94.60
19483;DHT22;9882;51.166;6.992;2022-07-29T14:22:07;27.90;96.90
19483;DHT22;9882;51.166;6.992;2022-07-29T14:24:36;28.00;95.40
19483;DHT22;9882;51.166;6.992;2022-07-29T14:27:05;27.50;94.50
19483;DHT22;9882;51.166;6.992;2022-07-29T14:29:35;26.60;94.10
19483;DHT22;9882;51.166;6.992;2022-07-29T14:32:05;26.70;95.90
19483;DHT22;9882;51.166;6.992;2022-07-29T14:34:34;27.20;94.90
19483;DHT22;9882;51.166;6.992;2022-07-29T14:37:06;27.30;93.30
19483;DHT22;9882;51.166;6.992;2022-07-29T14:39:35;27.70;96.20
19483;DHT22;9882;51.166;6.992;2022-07-29T14:42:08;27.40;93.50
19483;DHT22;9882;51.166;6.992;2022-07-29T14:44:37;27.50;95.30
19483;DHT22;9882;51.166;6.992;2022-07-29T14:47:06;28.60;94.90
19483;DHT22;9882;51.166;6.992;2022-07-29T14:49:34;27.80;92.40
19483;DHT22;9882;51.166;6.992;2022-07-29T14:52:03;28.60;94.40
19483;DHT22;9882;51.166;6.992;2022-07-29T14:54:33;29.20;91.50
19483;DHT22;9882;51.166;6.992;2022-07-29T14:57:02;28.70;92.10
19483;DHT22;9882;51.166;6.992;2022-07-29T14:59:31;29.00;91.20
19483;DHT22;9882;51.166;6.992;2022-07-29T15:01:59;28.20;91.70
19483;DHT22;9882;51.166;6.992;2022-07-29T15:04:28;28.20;92.30
19483;DHT22;9882;51.166;6.992;2022-07-29T15:06:57;28.70;92.30
19483;DHT22;9882;51.166;6.992;2022-07-29T15:09:26;28.70;91.00
19483;DHT22;9882;51.166;6.992;2022-07-29T15:11:56;28.20;92.60
19483;DHT22;9882;51.166;6.992;2022-07-29T15:14:24;28.40;91.50
19483;DHT22;9882;51.166;6.992;2022-07-29T15:16:53;28.60;91.70
19483;DHT22;9882;51.166;6.992;2022-07-29T15:19:22;28.40;93.70
19483;DHT22;9882;51.166;6.992;2022-07-29T15:21:50;29.00;93.40
19483;DHT22;9882;51.166;6.992;2022-07-29T15:24:20;28.90;92.50
19483;DHT22;9882;51.166;6.992;2022-07-29T15:26:49;28.00;92.50
19483;DHT22;9882;51.166;6.992;2022-07-29T15:29:19;28.20;93.90
19483;DHT22;9882;51.166;6.992;2022-07-29T15:31:47;28.70;92.70
19483;DHT22;9882;51.166;6.992;2022-07-29T15:34:16;28.60;92.40
19483;DHT22;9882;51.166;6.992;2022-07-29T15:36:44;28.50;91.50
19483;DHT22;9882;51.166;6.992;2022-07-29T15:39:18;28.60;92.30
19483;DHT22;9882;51.166;6.992;2022-07-29T15:41:47;28.40;94.00
19483;DHT22;9882;51.166;6.992;2022-07-29T15:44:15;29.10;94.50
19483;DHT22;9882;51.166;6.992;2022-07-29T15:46:46;28.70;91.40
19483;DHT22;9882;51.166;6.992;2022-07-29T15:49:34;28.70;91.00
19483;DHT22;9882;51.166;6.992;2022-07-29T15:52:05;27.80;91.80
19483;DHT22;9882;51.166;6.992;2022-07-29T15:54:35;27.20;93.40
19483;DHT22;9882;51.166;6.992;2022-07-29T15:57:05;26.40;93.30
19483;DHT22;9882;51.166;6.992;2022-07-29T15:59:34;26.40;93.50
19483;DHT22;9882;51.166;6.992;2022-07-29T16:02:04;27.40;94.30
19483;DHT22;9882;51.166;6.992;2022-07-29T16:04:33;27.20;94.30
19483;DHT22;9882;51.166;6.992;2022-07-29T16:07:01;27.10;92.10
19483;DHT22;9882;51.166;6.992;2022-07-29T16:09:30;27.90;93.90
19483;DHT22;9882;51.166;6.992;2022-07-29T16:11:59;28.50;92.60
19483;DHT22;9882;51.166;6.992;2022-07-29T16:14:27;28.50;89.80
19483;DHT22;9882;51.166;6.992;2022-07-29T16:16:56;28.70;90.80